sensor_id;sensor_type;location;lat;lon;timestamp;P1;durP1;ratioP1;P2;durP2;ratioP2
434;SDS011;204;48.942;9.256;2024-03-29T00:00:43;2.50;;;1.20;;
434;SDS011;204;48.942;9.256;2024-03-29T00:03:11;3.45;;;1.10;;
434;SDS011;204;48.942;9.256;2024-03-29T00:05:37;2.47;;;1.47;;
434;SDS011;204;48.942;9.256;2024-03-29T00:08:03;1.80;;;1.35;;
434;SDS011;204;48.942;9.256;2024-03-29T00:10:29;1.70;;;0.98;;
434;SDS011;204;48.942;9.256;2024-03-29T00:12:55;2.17;;;1.40;;
434;SDS011;204;48.942;9.256;2024-03-29T00:15:20;1.63;;;1.20;;
434;SDS011;204;48.942;9.256;2024-03-29T00:17:46;2.03;;;1.00;;
434;SDS011;204;48.942;9.256;2024-03-29T00:20:11;2.73;;;1.30;;
434;SDS011;204;48.942;9.256;2024-03-29T00:22:37;1.33;;;1.10;;
434;SDS011;204;48.942;9.256;2024-03-29T00:25:03;2.72;;;0.95;;
434;SDS011;204;48.942;9.256;2024-03-29T00:27:29;1.40;;;1.27;;
434;SDS011;204;48.942;9.256;2024-03-29T00:29:55;1.20;;;1.00;;
434;SDS011;204;48.942;9.256;2024-03-29T00:32:21;2.40;;;1.10;;
434;SDS011;204;48.942;9.256;2024-03-29T00:34:50;0.93;;;0.88;;
434;SDS011;204;48.942;9.256;2024-03-29T00:37:17;1.95;;;1.08;;
434;SDS011;204;48.942;9.256;2024-03-29T00:39:43;1.25;;;1.15;;
434;SDS011;204;48.942;9.256;2024-03-29T00:42:09;1.73;;;0.83;;
434;SDS011;204;48.942;9.256;2024-03-29T00:44:37;1.08;;;1.00;;
434;SDS011;204;48.942;9.256;2024-03-29T00:47:06;1.20;;;1.10;;
434;SDS011;204;48.942;9.256;2024-03-29T00:49:32;3.88;;;1.02;;
434;SDS011;204;48.942;9.256;2024-03-29T00:51:58;1.37;;;1.27;;
434;SDS011;204;48.942;9.256;2024-03-29T00:54:24;1.38;;;1.10;;
434;SDS011;204;48.942;9.256;2024-03-29T00:56:50;2.00;;;1.47;;
434;SDS011;204;48.942;9.256;2024-03-29T00:59:16;1.50;;;1.27;;
434;SDS011;204;48.942;9.256;2024-03-29T01:01:41;2.90;;;1.50;;
434;SDS011;204;48.942;9.256;2024-03-29T01:04:07;1.50;;;1.47;;
434;SDS011;204;48.942;9.256;2024-03-29T01:06:33;1.80;;;1.27;;
434;SDS011;204;48.942;9.256;2024-03-29T01:08:59;0.90;;;0.77;;
434;SDS011;204;48.942;9.256;2024-03-29T01:11:25;1.75;;;1.38;;
434;SDS011;204;48.942;9.256;2024-03-29T01:13:50;1.63;;;1.10;;
434;SDS011;204;48.942;9.256;2024-03-29T01:16:16;2.80;;;1.03;;
434;SDS011;204;48.942;9.256;2024-03-29T01:18:42;1.60;;;1.10;;
434;SDS011;204;48.942;9.256;2024-03-29T01:21:08;1.77;;;1.05;;
434;SDS011;204;48.942;9.256;2024-03-29T01:23:34;1.03;;;0.87;;
434;SDS011;204;48.942;9.256;2024-03-29T01:26:00;3.33;;;0.93;;
434;SDS011;204;48.942;9.256;2024-03-29T01:28:26;6.10;;;1.10;;
434;SDS011;204;48.942;9.256;2024-03-29T01:30:54;1.97;;;1.00;;
434;SDS011;204;48.942;9.256;2024-03-29T01:33:20;0.65;;;0.60;;
434;SDS011;204;48.942;9.256;2024-03-29T01:35:46;1.80;;;1.38;;
434;SDS011;204;48.942;9.256;2024-03-29T01:38:12;1.50;;;0.73;;
434;SDS011;204;48.942;9.256;2024-03-29T01:40:37;2.40;;;0.93;;
434;SDS011;204;48.942;9.256;2024-03-29T01:43:03;2.03;;;1.10;;
434;SDS011;204;48.942;9.256;2024-03-29T01:45:29;1.77;;;1.00;;
434;SDS011;204;48.942;9.256;2024-03-29T01:47:56;1.35;;;0.75;;
434;SDS011;204;48.942;9.256;2024-03-29T01:50:21;2.93;;;0.87;;
434;SDS011;204;48.942;9.256;2024-03-29T01:52:47;2.27;;;1.47;;
434;SDS011;204;48.942;9.256;2024-03-29T01:55:15;2.67;;;1.38;;
434;SDS011;204;48.942;9.256;2024-03-29T01:57:40;1.93;;;1.20;;
434;SDS011;204;48.942;9.256;2024-03-29T02:00:06;1.00;;;0.83;;
434;SDS011;204;48.942;9.256;2024-03-29T02:02:33;1.17;;;0.88;;
434;SDS011;204;48.942;9.256;2024-03-29T02:04:59;1.13;;;0.80;;
434;SDS011;204;48.942;9.256;2024-03-29T02:07:25;1.48;;;0.88;;
434;SDS011;204;48.942;9.256;2024-03-29T02:09:50;0.90;;;0.60;;
434;SDS011;204;48.942;9.256;2024-03-29T02:12:16;2.10;;;1.10;;
434;SDS011;204;48.942;9.256;2024-03-29T02:14:42;1.20;;;0.75;;
434;SDS011;204;48.942;9.256;2024-03-29T02:17:08;1.23;;;0.60;;
434;SDS011;204;48.942;9.256;2024-03-29T02:19:34;2.75;;;0.70;;
434;SDS011;204;48.942;9.256;2024-03-29T02:21:59;5.17;;;0.77;;
434;SDS011;204;48.942;9.256;2024-03-29T02:24:26;1.65;;;0.60;;
434;SDS011;204;48.942;9.256;2024-03-29T02:26:53;2.08;;;1.10;;
434;SDS011;204;48.942;9.256;2024-03-29T02:29:21;2.20;;;1.00;;
434;SDS011;204;48.942;9.256;2024-03-29T02:31:46;0.80;;;0.70;;
434;SDS011;204;48.942;9.256;2024-03-29T02:34:12;0.70;;;0.60;;
434;SDS011;204;48.942;9.256;2024-03-29T02:36:38;4.37;;;1.70;;
434;SDS011;204;48.942;9.256;2024-03-29T02:39:03;2.07;;;1.30;;
434;SDS011;204;48.942;9.256;2024-03-29T02:41:29;1.37;;;0.60;;
434;SDS011;204;48.942;9.256;2024-03-29T02:43:55;0.90;;;0.70;;
434;SDS011;204;48.942;9.256;2024-03-29T02:46:21;1.27;;;0.70;;
434;SDS011;204;48.942;9.256;2024-03-29T02:48:47;1.60;;;1.00;;
434;SDS011;204;48.942;9.256;2024-03-29T02:51:12;2.30;;;1.27;;
434;SDS011;204;48.942;9.256;2024-03-29T02:53:38;0.90;;;0.90;;
434;SDS011;204;48.942;9.256;2024-03-29T02:56:04;1.50;;;1.00;;
434;SDS011;204;48.942;9.256;2024-03-29T02:58:32;0.88;;;0.80;;
434;SDS011;204;48.942;9.256;2024-03-29T03:01:04;1.38;;;0.82;;
434;SDS011;204;48.942;9.256;2024-03-29T03:03:31;0.90;;;0.80;;
434;SDS011;204;48.942;9.256;2024-03-29T03:05:57;2.57;;;0.67;;
434;SDS011;204;48.942;9.256;2024-03-29T03:08:22;0.70;;;0.60;;
434;SDS011;204;48.942;9.256;2024-03-29T03:11:07;0.85;;;0.70;;
434;SDS011;204;48.942;9.256;2024-03-29T03:13:32;1.83;;;0.90;;
434;SDS011;204;48.942;9.256;2024-03-29T03:15:58;0.90;;;0.80;;
434;SDS011;204;48.942;9.256;2024-03-29T03:18:23;1.17;;;0.70;;
434;SDS011;204;48.942;9.256;2024-03-29T03:20:55;1.23;;;0.50;;
434;SDS011;204;48.942;9.256;2024-03-29T03:23:24;1.17;;;0.70;;
434;SDS011;204;48.942;9.256;2024-03-29T03:25:57;0.90;;;0.70;;
434;SDS011;204;48.942;9.256;2024-03-29T03:28:23;1.23;;;0.68;;
434;SDS011;204;48.942;9.256;2024-03-29T03:30:49;0.83;;;0.67;;
434;SDS011;204;48.942;9.256;2024-03-29T03:33:16;1.00;;;0.70;;
434;SDS011;204;48.942;9.256;2024-03-29T03:35:42;0.60;;;0.60;;
434;SDS011;204;48.942;9.256;2024-03-29T03:38:08;0.90;;;0.63;;
434;SDS011;204;48.942;9.256;2024-03-29T03:40:34;1.83;;;0.95;;
434;SDS011;204;48.942;9.256;2024-03-29T03:43:03;1.35;;;0.88;;
434;SDS011;204;48.942;9.256;2024-03-29T03:45:36;1.73;;;0.90;;
434;SDS011;204;48.942;9.256;2024-03-29T03:48:03;1.45;;;1.02;;
434;SDS011;204;48.942;9.256;2024-03-29T03:50:33;1.67;;;0.98;;
434;SDS011;204;48.942;9.256;2024-03-29T03:52:59;1.97;;;0.93;;
434;SDS011;204;48.942;9.256;2024-03-29T03:55:25;1.65;;;0.60;;
434;SDS011;204;48.942;9.256;2024-03-29T03:57:51;1.83;;;1.47;;
434;SDS011;204;48.942;9.256;2024-03-29T04:00:18;1.67;;;0.98;;
434;SDS011;204;48.942;9.256;2024-03-29T04:02:51;1.00;;;0.80;;
434;SDS011;204;48.942;9.256;2024-03-29T04:05:17;1.58;;;1.05;;
434;SDS011;204;48.942;9.256;2024-03-29T04:07:46;1.35;;;0.77;;
434;SDS011;204;48.942;9.256;2024-03-29T04:10:12;1.20;;;0.80;;
434;SDS011;204;48.942;9.256;2024-03-29T04:12:38;1.50;;;1.00;;
434;SDS011;204;48.942;9.256;2024-03-29T04:15:04;1.70;;;1.00;;
434;SDS011;204;48.942;9.256;2024-03-29T04:17:30;1.35;;;0.90;;
434;SDS011;204;48.942;9.256;2024-03-29T04:19:57;0.82;;;0.70;;
434;SDS011;204;48.942;9.256;2024-03-29T04:22:23;1.75;;;0.75;;
434;SDS011;204;48.942;9.256;2024-03-29T04:24:49;1.00;;;0.90;;
434;SDS011;204;48.942;9.256;2024-03-29T04:27:15;0.90;;;0.90;;
434;SDS011;204;48.942;9.256;2024-03-29T04:29:41;1.60;;;0.90;;
434;SDS011;204;48.942;9.256;2024-03-29T04:32:07;1.38;;;0.70;;
434;SDS011;204;48.942;9.256;2024-03-29T04:34:33;2.63;;;0.93;;
434;SDS011;204;48.942;9.256;2024-03-29T04:36:59;1.00;;;0.70;;
434;SDS011;204;48.942;9.256;2024-03-29T04:39:24;3.50;;;0.80;;
434;SDS011;204;48.942;9.256;2024-03-29T04:41:50;1.77;;;0.50;;
434;SDS011;204;48.942;9.256;2024-03-29T04:44:23;0.70;;;0.60;;
434;SDS011;204;48.942;9.256;2024-03-29T04:46:50;0.70;;;0.50;;
434;SDS011;204;48.942;9.256;2024-03-29T04:49:15;0.70;;;0.40;;
434;SDS011;204;48.942;9.256;2024-03-29T04:51:47;1.52;;;0.80;;
434;SDS011;204;48.942;9.256;2024-03-29T04:54:14;1.02;;;1.00;;
434;SDS011;204;48.942;9.256;2024-03-29T04:56:41;0.80;;;0.55;;
434;SDS011;204;48.942;9.256;2024-03-29T04:59:06;1.33;;;0.70;;
434;SDS011;204;48.942;9.256;2024-03-29T05:01:32;0.60;;;0.50;;
434;SDS011;204;48.942;9.256;2024-03-29T05:04:00;0.47;;;0.40;;
434;SDS011;204;48.942;9.256;2024-03-29T05:06:25;0.60;;;0.57;;
434;SDS011;204;48.942;9.256;2024-03-29T05:08:51;0.80;;;0.50;;
434;SDS011;204;48.942;9.256;2024-03-29T05:11:17;1.38;;;0.77;;
434;SDS011;204;48.942;9.256;2024-03-29T05:13:44;0.88;;;0.50;;
434;SDS011;204;48.942;9.256;2024-03-29T05:16:10;1.67;;;0.60;;
434;SDS011;204;48.942;9.256;2024-03-29T05:18:35;0.50;;;0.40;;
434;SDS011;204;48.942;9.256;2024-03-29T05:21:01;0.60;;;0.40;;
434;SDS011;204;48.942;9.256;2024-03-29T05:23:26;0.60;;;0.60;;
434;SDS011;204;48.942;9.256;2024-03-29T05:25:52;0.90;;;0.43;;
434;SDS011;204;48.942;9.256;2024-03-29T05:28:18;0.50;;;0.33;;
434;SDS011;204;48.942;9.256;2024-03-29T05:30:43;0.73;;;0.53;;
434;SDS011;204;48.942;9.256;2024-03-29T05:33:09;0.50;;;0.47;;
434;SDS011;204;48.942;9.256;2024-03-29T05:35:35;1.40;;;0.80;;
434;SDS011;204;48.942;9.256;2024-03-29T05:38:00;0.60;;;0.57;;
434;SDS011;204;48.942;9.256;2024-03-29T05:40:26;0.65;;;0.57;;
434;SDS011;204;48.942;9.256;2024-03-29T05:42:52;1.80;;;0.60;;
434;SDS011;204;48.942;9.256;2024-03-29T05:45:29;1.30;;;0.70;;
434;SDS011;204;48.942;9.256;2024-03-29T05:47:56;0.55;;;0.50;;
434;SDS011;204;48.942;9.256;2024-03-29T05:50:22;0.95;;;0.70;;
434;SDS011;204;48.942;9.256;2024-03-29T05:52:49;0.73;;;0.60;;
434;SDS011;204;48.942;9.256;2024-03-29T05:55:16;0.88;;;0.85;;
434;SDS011;204;48.942;9.256;2024-03-29T05:57:41;0.87;;;0.60;;
434;SDS011;204;48.942;9.256;2024-03-29T06:00:09;1.02;;;0.77;;
434;SDS011;204;48.942;9.256;2024-03-29T06:02:36;1.45;;;0.60;;
434;SDS011;204;48.942;9.256;2024-03-29T06:05:02;1.27;;;0.70;;
434;SDS011;204;48.942;9.256;2024-03-29T06:07:29;0.90;;;0.40;;
434;SDS011;204;48.942;9.256;2024-03-29T06:09:57;1.10;;;0.70;;
434;SDS011;204;48.942;9.256;2024-03-29T06:12:24;1.65;;;0.70;;
434;SDS011;204;48.942;9.256;2024-03-29T06:14:49;0.87;;;0.67;;
434;SDS011;204;48.942;9.256;2024-03-29T06:17:34;1.88;;;0.88;;
434;SDS011;204;48.942;9.256;2024-03-29T06:20:00;0.60;;;0.55;;
434;SDS011;204;48.942;9.256;2024-03-29T06:22:28;1.00;;;0.90;;
434;SDS011;204;48.942;9.256;2024-03-29T06:24:55;0.80;;;0.80;;
434;SDS011;204;48.942;9.256;2024-03-29T06:27:24;0.82;;;0.60;;
434;SDS011;204;48.942;9.256;2024-03-29T06:29:50;1.17;;;0.68;;
434;SDS011;204;48.942;9.256;2024-03-29T06:32:16;0.90;;;0.63;;
434;SDS011;204;48.942;9.256;2024-03-29T06:34:43;2.42;;;1.05;;
434;SDS011;204;48.942;9.256;2024-03-29T06:37:10;1.10;;;1.00;;
434;SDS011;204;48.942;9.256;2024-03-29T06:39:35;0.83;;;0.70;;
434;SDS011;204;48.942;9.256;2024-03-29T06:42:01;1.53;;;1.30;;
434;SDS011;204;48.942;9.256;2024-03-29T06:44:27;0.90;;;0.87;;
434;SDS011;204;48.942;9.256;2024-03-29T06:46:52;1.37;;;1.00;;
434;SDS011;204;48.942;9.256;2024-03-29T06:49:19;1.23;;;1.20;;
434;SDS011;204;48.942;9.256;2024-03-29T06:51:44;1.50;;;1.10;;
434;SDS011;204;48.942;9.256;2024-03-29T06:54:10;2.40;;;1.10;;
434;SDS011;204;48.942;9.256;2024-03-29T06:56:35;1.27;;;1.20;;
434;SDS011;204;48.942;9.256;2024-03-29T06:59:01;3.00;;;1.40;;
434;SDS011;204;48.942;9.256;2024-03-29T07:01:27;1.33;;;1.23;;
434;SDS011;204;48.942;9.256;2024-03-29T07:03:52;1.23;;;1.13;;
434;SDS011;204;48.942;9.256;2024-03-29T07:06:18;2.10;;;1.07;;
434;SDS011;204;48.942;9.256;2024-03-29T07:08:43;1.10;;;1.00;;
434;SDS011;204;48.942;9.256;2024-03-29T07:11:09;2.73;;;1.80;;
434;SDS011;204;48.942;9.256;2024-03-29T07:13:35;0.88;;;0.77;;
434;SDS011;204;48.942;9.256;2024-03-29T07:16:02;1.88;;;1.20;;
434;SDS011;204;48.942;9.256;2024-03-29T07:18:28;0.80;;;0.70;;
434;SDS011;204;48.942;9.256;2024-03-29T07:20:54;1.08;;;0.90;;
434;SDS011;204;48.942;9.256;2024-03-29T07:23:20;1.27;;;1.10;;
434;SDS011;204;48.942;9.256;2024-03-29T07:25:56;0.77;;;0.70;;
434;SDS011;204;48.942;9.256;2024-03-29T07:28:29;1.35;;;1.10;;
434;SDS011;204;48.942;9.256;2024-03-29T07:30:55;0.93;;;0.77;;
434;SDS011;204;48.942;9.256;2024-03-29T07:33:21;1.15;;;0.90;;
434;SDS011;204;48.942;9.256;2024-03-29T07:35:54;0.93;;;0.90;;
434;SDS011;204;48.942;9.256;2024-03-29T07:38:21;1.33;;;1.23;;
434;SDS011;204;48.942;9.256;2024-03-29T07:40:48;1.08;;;1.00;;
434;SDS011;204;48.942;9.256;2024-03-29T07:43:14;1.50;;;1.33;;
434;SDS011;204;48.942;9.256;2024-03-29T07:45:43;1.67;;;1.40;;
434;SDS011;204;48.942;9.256;2024-03-29T07:48:15;2.60;;;1.40;;
434;SDS011;204;48.942;9.256;2024-03-29T07:50:43;2.10;;;1.50;;
434;SDS011;204;48.942;9.256;2024-03-29T07:53:09;1.67;;;1.60;;
434;SDS011;204;48.942;9.256;2024-03-29T07:55:36;1.50;;;1.40;;
434;SDS011;204;48.942;9.256;2024-03-29T07:58:04;2.67;;;2.05;;
434;SDS011;204;48.942;9.256;2024-03-29T08:00:33;9.38;;;7.22;;
434;SDS011;204;48.942;9.256;2024-03-29T08:02:59;6.07;;;3.92;;
434;SDS011;204;48.942;9.256;2024-03-29T08:05:25;3.97;;;3.80;;
434;SDS011;204;48.942;9.256;2024-03-29T08:07:52;2.17;;;1.65;;
434;SDS011;204;48.942;9.256;2024-03-29T08:10:17;3.00;;;1.70;;
434;SDS011;204;48.942;9.256;2024-03-29T08:12:43;2.20;;;1.70;;
434;SDS011;204;48.942;9.256;2024-03-29T08:15:08;4.30;;;3.30;;
434;SDS011;204;48.942;9.256;2024-03-29T08:17:34;2.23;;;2.07;;
434;SDS011;204;48.942;9.256;2024-03-29T08:20:01;3.83;;;2.10;;
434;SDS011;204;48.942;9.256;2024-03-29T08:22:27;2.17;;;1.83;;
434;SDS011;204;48.942;9.256;2024-03-29T08:24:53;2.53;;;1.80;;
434;SDS011;204;48.942;9.256;2024-03-29T08:27:20;2.47;;;1.80;;
434;SDS011;204;48.942;9.256;2024-03-29T08:29:46;2.90;;;2.20;;
434;SDS011;204;48.942;9.256;2024-03-29T08:32:14;4.15;;;2.45;;
434;SDS011;204;48.942;9.256;2024-03-29T08:34:39;3.00;;;2.10;;
434;SDS011;204;48.942;9.256;2024-03-29T08:37:05;2.43;;;2.30;;
434;SDS011;204;48.942;9.256;2024-03-29T08:39:31;1.60;;;1.50;;
434;SDS011;204;48.942;9.256;2024-03-29T08:41:57;3.58;;;1.70;;
434;SDS011;204;48.942;9.256;2024-03-29T08:44:23;2.90;;;1.45;;
434;SDS011;204;48.942;9.256;2024-03-29T08:46:50;3.07;;;1.80;;
434;SDS011;204;48.942;9.256;2024-03-29T08:49:16;1.85;;;1.27;;
434;SDS011;204;48.942;9.256;2024-03-29T08:51:41;1.70;;;1.47;;
434;SDS011;204;48.942;9.256;2024-03-29T08:54:07;4.43;;;2.40;;
434;SDS011;204;48.942;9.256;2024-03-29T08:56:33;3.43;;;1.50;;
434;SDS011;204;48.942;9.256;2024-03-29T08:59:01;1.98;;;1.88;;
434;SDS011;204;48.942;9.256;2024-03-29T09:01:36;1.85;;;1.77;;
434;SDS011;204;48.942;9.256;2024-03-29T09:04:03;1.67;;;1.00;;
434;SDS011;204;48.942;9.256;2024-03-29T09:06:31;2.08;;;1.75;;
434;SDS011;204;48.942;9.256;2024-03-29T09:08:58;2.35;;;1.52;;
434;SDS011;204;48.942;9.256;2024-03-29T09:11:24;2.40;;;1.20;;
434;SDS011;204;48.942;9.256;2024-03-29T09:13:49;1.60;;;1.50;;
434;SDS011;204;48.942;9.256;2024-03-29T09:16:15;1.90;;;1.30;;
434;SDS011;204;48.942;9.256;2024-03-29T09:18:40;1.63;;;1.53;;
434;SDS011;204;48.942;9.256;2024-03-29T09:21:06;2.33;;;2.00;;
434;SDS011;204;48.942;9.256;2024-03-29T09:23:34;1.63;;;1.55;;
434;SDS011;204;48.942;9.256;2024-03-29T09:25:59;2.63;;;2.43;;
434;SDS011;204;48.942;9.256;2024-03-29T09:28:25;2.70;;;2.50;;
434;SDS011;204;48.942;9.256;2024-03-29T09:30:57;1.50;;;1.50;;
434;SDS011;204;48.942;9.256;2024-03-29T09:33:24;3.78;;;2.33;;
434;SDS011;204;48.942;9.256;2024-03-29T09:35:49;4.17;;;2.30;;
434;SDS011;204;48.942;9.256;2024-03-29T09:38:15;2.53;;;2.00;;
434;SDS011;204;48.942;9.256;2024-03-29T09:40:41;2.00;;;1.90;;
434;SDS011;204;48.942;9.256;2024-03-29T09:43:07;2.00;;;1.90;;
434;SDS011;204;48.942;9.256;2024-03-29T09:45:35;1.52;;;1.50;;
434;SDS011;204;48.942;9.256;2024-03-29T09:48:02;3.05;;;2.35;;
434;SDS011;204;48.942;9.256;2024-03-29T09:50:29;3.53;;;3.10;;
434;SDS011;204;48.942;9.256;2024-03-29T09:52:56;5.57;;;2.55;;
434;SDS011;204;48.942;9.256;2024-03-29T09:55:23;3.90;;;2.30;;
434;SDS011;204;48.942;9.256;2024-03-29T09:57:49;2.90;;;2.40;;
434;SDS011;204;48.942;9.256;2024-03-29T10:00:14;4.50;;;2.63;;
434;SDS011;204;48.942;9.256;2024-03-29T10:02:40;6.60;;;2.50;;
434;SDS011;204;48.942;9.256;2024-03-29T10:05:06;4.40;;;2.85;;
434;SDS011;204;48.942;9.256;2024-03-29T10:07:33;2.53;;;2.40;;
434;SDS011;204;48.942;9.256;2024-03-29T10:10:01;6.05;;;4.38;;
434;SDS011;204;48.942;9.256;2024-03-29T10:12:28;3.28;;;3.08;;
434;SDS011;204;48.942;9.256;2024-03-29T10:14:54;2.28;;;2.10;;
434;SDS011;204;48.942;9.256;2024-03-29T10:17:30;6.43;;;2.35;;
434;SDS011;204;48.942;9.256;2024-03-29T10:19:59;2.72;;;2.40;;
434;SDS011;204;48.942;9.256;2024-03-29T10:22:28;3.42;;;2.92;;
434;SDS011;204;48.942;9.256;2024-03-29T10:24:54;2.45;;;2.08;;
434;SDS011;204;48.942;9.256;2024-03-29T10:27:24;5.13;;;2.22;;
434;SDS011;204;48.942;9.256;2024-03-29T10:29:52;3.00;;;2.72;;
434;SDS011;204;48.942;9.256;2024-03-29T10:32:18;2.60;;;2.40;;
434;SDS011;204;48.942;9.256;2024-03-29T10:34:44;2.50;;;2.30;;
434;SDS011;204;48.942;9.256;2024-03-29T10:37:09;3.23;;;2.60;;
434;SDS011;204;48.942;9.256;2024-03-29T10:39:35;2.60;;;2.30;;
434;SDS011;204;48.942;9.256;2024-03-29T10:42:01;7.33;;;2.67;;
434;SDS011;204;48.942;9.256;2024-03-29T10:44:28;2.95;;;2.13;;
434;SDS011;204;48.942;9.256;2024-03-29T10:46:55;3.65;;;2.85;;
434;SDS011;204;48.942;9.256;2024-03-29T10:49:22;2.85;;;1.55;;
434;SDS011;204;48.942;9.256;2024-03-29T10:51:48;1.80;;;1.65;;
434;SDS011;204;48.942;9.256;2024-03-29T10:54:16;1.58;;;1.55;;
434;SDS011;204;48.942;9.256;2024-03-29T10:56:42;3.47;;;1.70;;
434;SDS011;204;48.942;9.256;2024-03-29T10:59:12;2.00;;;1.85;;
434;SDS011;204;48.942;9.256;2024-03-29T11:01:43;2.00;;;1.90;;
434;SDS011;204;48.942;9.256;2024-03-29T11:04:18;2.47;;;2.28;;
434;SDS011;204;48.942;9.256;2024-03-29T11:06:47;2.40;;;1.95;;
434;SDS011;204;48.942;9.256;2024-03-29T11:09:16;2.42;;;2.00;;
434;SDS011;204;48.942;9.256;2024-03-29T11:11:46;1.85;;;1.77;;
434;SDS011;204;48.942;9.256;2024-03-29T11:14:17;3.83;;;3.00;;
434;SDS011;204;48.942;9.256;2024-03-29T11:16:51;2.97;;;2.33;;
434;SDS011;204;48.942;9.256;2024-03-29T11:19:22;2.40;;;2.20;;
434;SDS011;204;48.942;9.256;2024-03-29T11:21:48;3.93;;;2.60;;
434;SDS011;204;48.942;9.256;2024-03-29T11:24:16;3.38;;;2.28;;
434;SDS011;204;48.942;9.256;2024-03-29T11:26:44;2.75;;;2.55;;
434;SDS011;204;48.942;9.256;2024-03-29T11:29:20;1.80;;;1.70;;
434;SDS011;204;48.942;9.256;2024-03-29T11:31:46;2.42;;;1.75;;
434;SDS011;204;48.942;9.256;2024-03-29T11:34:14;1.58;;;1.50;;
434;SDS011;204;48.942;9.256;2024-03-29T11:36:44;4.57;;;1.85;;
434;SDS011;204;48.942;9.256;2024-03-29T11:39:19;1.67;;;1.65;;
434;SDS011;204;48.942;9.256;2024-03-29T11:41:48;1.60;;;1.50;;
434;SDS011;204;48.942;9.256;2024-03-29T11:44:14;2.55;;;1.50;;
434;SDS011;204;48.942;9.256;2024-03-29T11:46:41;1.40;;;1.40;;
434;SDS011;204;48.942;9.256;2024-03-29T11:49:08;0.98;;;0.93;;
434;SDS011;204;48.942;9.256;2024-03-29T11:51:34;2.20;;;1.37;;
434;SDS011;204;48.942;9.256;2024-03-29T11:54:00;1.43;;;1.20;;
434;SDS011;204;48.942;9.256;2024-03-29T11:56:27;1.80;;;1.00;;
434;SDS011;204;48.942;9.256;2024-03-29T11:58:53;1.77;;;1.40;;
434;SDS011;204;48.942;9.256;2024-03-29T12:01:24;1.35;;;1.25;;
434;SDS011;204;48.942;9.256;2024-03-29T12:03:50;1.37;;;1.10;;
434;SDS011;204;48.942;9.256;2024-03-29T12:06:16;2.10;;;1.20;;
434;SDS011;204;48.942;9.256;2024-03-29T12:08:42;2.05;;;1.38;;
434;SDS011;204;48.942;9.256;2024-03-29T12:11:08;1.50;;;1.40;;
434;SDS011;204;48.942;9.256;2024-03-29T12:13:34;1.50;;;1.45;;
434;SDS011;204;48.942;9.256;2024-03-29T12:16:00;1.80;;;1.37;;
434;SDS011;204;48.942;9.256;2024-03-29T12:18:26;2.22;;;1.45;;
434;SDS011;204;48.942;9.256;2024-03-29T12:20:53;2.50;;;2.30;;
434;SDS011;204;48.942;9.256;2024-03-29T12:23:19;2.20;;;2.00;;
434;SDS011;204;48.942;9.256;2024-03-29T12:25:46;2.60;;;2.03;;
434;SDS011;204;48.942;9.256;2024-03-29T12:28:13;2.60;;;2.17;;
434;SDS011;204;48.942;9.256;2024-03-29T12:30:41;2.70;;;2.00;;
434;SDS011;204;48.942;9.256;2024-03-29T12:33:11;1.30;;;1.20;;
434;SDS011;204;48.942;9.256;2024-03-29T12:35:43;2.35;;;1.30;;
434;SDS011;204;48.942;9.256;2024-03-29T12:38:10;1.27;;;1.20;;
434;SDS011;204;48.942;9.256;2024-03-29T12:40:37;1.63;;;1.13;;
434;SDS011;204;48.942;9.256;2024-03-29T12:43:05;1.70;;;1.27;;
434;SDS011;204;48.942;9.256;2024-03-29T12:45:33;1.17;;;0.80;;
434;SDS011;204;48.942;9.256;2024-03-29T12:48:09;3.50;;;1.00;;
434;SDS011;204;48.942;9.256;2024-03-29T12:50:42;1.60;;;1.50;;
434;SDS011;204;48.942;9.256;2024-03-29T12:53:09;1.13;;;1.00;;
434;SDS011;204;48.942;9.256;2024-03-29T12:55:37;2.13;;;1.20;;
434;SDS011;204;48.942;9.256;2024-03-29T12:58:10;4.30;;;1.57;;
434;SDS011;204;48.942;9.256;2024-03-29T13:00:38;1.90;;;1.27;;
434;SDS011;204;48.942;9.256;2024-03-29T13:03:04;1.30;;;1.20;;
434;SDS011;204;48.942;9.256;2024-03-29T13:05:30;2.00;;;1.43;;
434;SDS011;204;48.942;9.256;2024-03-29T13:08:02;2.20;;;1.50;;
434;SDS011;204;48.942;9.256;2024-03-29T13:10:29;1.70;;;1.43;;
434;SDS011;204;48.942;9.256;2024-03-29T13:12:55;1.30;;;1.30;;
434;SDS011;204;48.942;9.256;2024-03-29T13:15:21;1.57;;;1.30;;
434;SDS011;204;48.942;9.256;2024-03-29T13:17:50;2.20;;;1.30;;
434;SDS011;204;48.942;9.256;2024-03-29T13:20:16;1.90;;;1.60;;
434;SDS011;204;48.942;9.256;2024-03-29T13:22:43;1.40;;;1.30;;
434;SDS011;204;48.942;9.256;2024-03-29T13:25:11;1.67;;;1.60;;
434;SDS011;204;48.942;9.256;2024-03-29T13:27:40;1.37;;;1.30;;
434;SDS011;204;48.942;9.256;2024-03-29T13:30:06;2.47;;;1.70;;
434;SDS011;204;48.942;9.256;2024-03-29T13:32:36;3.67;;;1.70;;
434;SDS011;204;48.942;9.256;2024-03-29T13:35:05;1.43;;;1.27;;
434;SDS011;204;48.942;9.256;2024-03-29T13:37:34;1.20;;;1.10;;
434;SDS011;204;48.942;9.256;2024-03-29T13:40:04;1.40;;;1.20;;
434;SDS011;204;48.942;9.256;2024-03-29T13:42:33;1.53;;;0.80;;
434;SDS011;204;48.942;9.256;2024-03-29T13:45:00;1.73;;;1.07;;
434;SDS011;204;48.942;9.256;2024-03-29T13:47:26;1.53;;;0.93;;
434;SDS011;204;48.942;9.256;2024-03-29T13:49:51;1.70;;;0.70;;
434;SDS011;204;48.942;9.256;2024-03-29T13:52:19;0.80;;;0.60;;
434;SDS011;204;48.942;9.256;2024-03-29T13:54:45;2.20;;;1.10;;
434;SDS011;204;48.942;9.256;2024-03-29T13:57:12;0.60;;;0.60;;
434;SDS011;204;48.942;9.256;2024-03-29T13:59:41;2.93;;;0.90;;
434;SDS011;204;48.942;9.256;2024-03-29T14:02:13;1.77;;;1.67;;
434;SDS011;204;48.942;9.256;2024-03-29T14:04:43;0.90;;;0.70;;
434;SDS011;204;48.942;9.256;2024-03-29T14:07:09;1.20;;;0.57;;
434;SDS011;204;48.942;9.256;2024-03-29T14:09:45;2.03;;;0.67;;
434;SDS011;204;48.942;9.256;2024-03-29T14:12:11;0.47;;;0.40;;
434;SDS011;204;48.942;9.256;2024-03-29T14:14:37;0.80;;;0.60;;
434;SDS011;204;48.942;9.256;2024-03-29T14:17:02;1.03;;;0.70;;
434;SDS011;204;48.942;9.256;2024-03-29T14:19:33;0.80;;;0.70;;
434;SDS011;204;48.942;9.256;2024-03-29T14:21:59;0.93;;;0.90;;
434;SDS011;204;48.942;9.256;2024-03-29T14:24:26;1.67;;;0.90;;
434;SDS011;204;48.942;9.256;2024-03-29T14:26:53;1.60;;;0.70;;
434;SDS011;204;48.942;9.256;2024-03-29T14:29:18;1.40;;;0.40;;
434;SDS011;204;48.942;9.256;2024-03-29T14:31:47;0.57;;;0.50;;
434;SDS011;204;48.942;9.256;2024-03-29T14:34:13;0.73;;;0.70;;
434;SDS011;204;48.942;9.256;2024-03-29T14:36:39;0.70;;;0.70;;
434;SDS011;204;48.942;9.256;2024-03-29T14:39:04;2.63;;;0.73;;
434;SDS011;204;48.942;9.256;2024-03-29T14:41:31;0.80;;;0.70;;
434;SDS011;204;48.942;9.256;2024-03-29T14:43:56;0.60;;;0.53;;
434;SDS011;204;48.942;9.256;2024-03-29T14:46:23;0.70;;;0.63;;
434;SDS011;204;48.942;9.256;2024-03-29T14:48:48;1.17;;;0.63;;
434;SDS011;204;48.942;9.256;2024-03-29T14:51:15;1.47;;;0.70;;
434;SDS011;204;48.942;9.256;2024-03-29T14:53:41;0.70;;;0.70;;
434;SDS011;204;48.942;9.256;2024-03-29T14:56:12;1.50;;;0.80;;
434;SDS011;204;48.942;9.256;2024-03-29T14:58:38;1.83;;;1.10;;
434;SDS011;204;48.942;9.256;2024-03-29T15:01:05;1.10;;;1.00;;
434;SDS011;204;48.942;9.256;2024-03-29T15:03:30;1.23;;;0.97;;
434;SDS011;204;48.942;9.256;2024-03-29T15:05:56;0.70;;;0.60;;
434;SDS011;204;48.942;9.256;2024-03-29T15:08:21;0.97;;;0.90;;
434;SDS011;204;48.942;9.256;2024-03-29T15:10:55;0.97;;;0.70;;
434;SDS011;204;48.942;9.256;2024-03-29T15:13:27;1.30;;;0.63;;
434;SDS011;204;48.942;9.256;2024-03-29T15:15:57;1.70;;;0.87;;
434;SDS011;204;48.942;9.256;2024-03-29T15:18:24;1.33;;;0.80;;
434;SDS011;204;48.942;9.256;2024-03-29T15:20:56;0.70;;;0.60;;
434;SDS011;204;48.942;9.256;2024-03-29T15:23:23;1.90;;;0.70;;
434;SDS011;204;48.942;9.256;2024-03-29T15:25:52;1.10;;;0.80;;
434;SDS011;204;48.942;9.256;2024-03-29T15:28:19;0.73;;;0.73;;
434;SDS011;204;48.942;9.256;2024-03-29T15:31:11;2.30;;;0.80;;
434;SDS011;204;48.942;9.256;2024-03-29T15:33:38;2.63;;;1.10;;
434;SDS011;204;48.942;9.256;2024-03-29T15:36:04;0.63;;;0.63;;
434;SDS011;204;48.942;9.256;2024-03-29T15:38:31;1.27;;;0.80;;
434;SDS011;204;48.942;9.256;2024-03-29T15:40:57;1.07;;;0.97;;
434;SDS011;204;48.942;9.256;2024-03-29T15:43:23;0.77;;;0.73;;